Priv.Wetterstation: Nettetal-Kaldenkirchen
Wetterdaten: aktuell Montag, 23.05.2022 08:20
Datum Zeit Temp. A.2,5m Temp. (1,3m) TempAmin2,5m TempAmax2,5m BodenTemp-60 Temp (+5cm) FeuchteA2,5m Feuchte 1,3m BlattFeu1,3m BodFeucht-60 Luftdruck Regen (2,9m) Wind (3,8m) Richtung3,8m Richtung3,8m Sonnenschein ET UV (2,9m) Solar (2,9m) Taupunkt Windchill Windben3,8m Empfang
23.05.2022 08:20 17,3 C 17,2 C 17,1 C 17,3 C 16,7 C 20,0 C 73 % 68 % 0 lf 45 cb 1004,1 hPa 0,0 mm 3,8 km/h (1 Bft) O 90 0 min 0,000 mm 0,1 UV-I 159 W/m 12,4 C 17,3 C 8,3 km/h (2 Bft) 98 %
23.05.2022 08:10 17,1 C 17,2 C 16,9 C 17,1 C 16,7 C 18,9 C 73 % 70 % 0 lf 45 cb 1004,3 hPa 0,0 mm 3,2 km/h (1 Bft) SO 145 0 min 0,000 mm 0,0 UV-I 100 W/m 12,2 C 17,1 C 6,2 km/h (2 Bft) 96 %
23.05.2022 08:00 16,9 C 16,7 C 16,8 C 16,9 C 16,7 C 17,8 C 73 % 69 % 0 lf 45 cb 1004,3 hPa 0,0 mm 3,4 km/h (1 Bft) O-SO 105 0 min 0,051 mm 0,0 UV-I 78 W/m 12,0 C 16,9 C 6,2 km/h (2 Bft) 94 %
23.05.2022 07:50 16,8 C 16,7 C 16,8 C 16,8 C 16,7 C 17,2 C 73 % 69 % 0 lf 45 cb 1004,3 hPa 0,0 mm 3,2 km/h (1 Bft) SO 134 0 min 0,000 mm 0,0 UV-I 65 W/m 11,9 C 16,8 C 8,3 km/h (2 Bft) 95 %
23.05.2022 07:40 16,8 C 16,7 C 16,7 C 16,8 C 16,7 C 17,2 C 73 % 69 % 0 lf 45 cb 1004,4 hPa 0,0 mm 3,9 km/h (1 Bft) O-SO 107 0 min 0,000 mm 0,0 UV-I 54 W/m 11,9 C 16,8 C 12,4 km/h (3 Bft) 97 %
23.05.2022 07:30 16,7 C 16,7 C 16,6 C 16,7 C 16,7 C 17,2 C 73 % 69 % 0 lf 45 cb 1004,6 hPa 0,0 mm 3,2 km/h (1 Bft) O 100 0 min 0,000 mm 0,0 UV-I 53 W/m 11,8 C 16,7 C 6,2 km/h (2 Bft) 97 %
23.05.2022 07:20 16,6 C 16,7 C 16,5 C 16,6 C 16,7 C 16,7 C 73 % 69 % 0 lf 45 cb 1004,6 hPa 0,0 mm 3,0 km/h (1 Bft) O-SO 121 0 min 0,000 mm 0,0 UV-I 52 W/m 11,7 C 16,6 C 6,2 km/h (2 Bft) 97 %
23.05.2022 07:10 16,5 C 16,1 C 16,3 C 16,5 C 16,7 C 16,7 C 73 % 69 % 0 lf 45 cb 1004,7 hPa 0,0 mm 3,3 km/h (1 Bft) SO 125 0 min 0,000 mm 0,0 UV-I 40 W/m 11,6 C 16,5 C 10,3 km/h (2 Bft) 98 %
23.05.2022 07:00 16,3 C 16,1 C 16,3 C 16,4 C 16,7 C 16,1 C 73 % 69 % 0 lf 45 cb 1004,8 hPa 0,0 mm 2,6 km/h (1 Bft) O-SO 121 0 min 0,026 mm 0,0 UV-I 37 W/m 11,4 C 16,3 C 6,2 km/h (2 Bft) 97 %
23.05.2022 06:50 16,3 C 16,1 C 16,2 C 16,3 C 16,7 C 16,1 C 73 % 70 % 0 lf 45 cb 1005,0 hPa 0,0 mm 3,2 km/h (1 Bft) S-SO 150 0 min 0,000 mm 0,0 UV-I 36 W/m 11,4 C 16,3 C 12,4 km/h (3 Bft) 96 %
23.05.2022 06:40 16,3 C 16,1 C 16,3 C 16,3 C 16,7 C 15,6 C 73 % 69 % 0 lf 45 cb 1005,1 hPa 0,0 mm 2,6 km/h (1 Bft) O 90 0 min 0,000 mm 0,0 UV-I 31 W/m 11,4 C 16,3 C 6,2 km/h (2 Bft) 97 %
23.05.2022 06:30 16,3 C 16,1 C 16,3 C 16,3 C 16,7 C 15,0 C 73 % 70 % 0 lf 45 cb 1005,5 hPa 0,0 mm 3,0 km/h (1 Bft) S-SO 159 0 min 0,000 mm 0,0 UV-I 19 W/m 11,4 C 16,3 C 8,3 km/h (2 Bft) 97 %
23.05.2022 06:20 16,3 C 16,1 C 16,3 C 16,5 C 16,7 C 15,0 C 74 % 70 % 0 lf 45 cb 1005,5 hPa 0,0 mm 3,5 km/h (1 Bft) SO 138 0 min 0,000 mm 0,0 UV-I 19 W/m 11,7 C 16,3 C 8,3 km/h (2 Bft) 96 %
23.05.2022 06:10 16,5 C 16,1 C 16,5 C 16,7 C 16,7 C 15,0 C 74 % 70 % 0 lf 45 cb 1005,4 hPa 0,0 mm 3,0 km/h (1 Bft) O-SO 109 0 min 0,025 mm 0,0 UV-I 14 W/m 11,8 C 16,5 C 8,3 km/h (2 Bft) 95 %
23.05.2022 06:00 16,7 C 16,1 C 16,7 C 16,8 C 16,7 C 15,0 C 74 % 71 % 0 lf 45 cb 1005,6 hPa 0,0 mm 1,8 km/h (1 Bft) O 79 0 min 0,000 mm 0,0 UV-I 4 W/m 12,0 C 16,7 C 6,2 km/h (2 Bft) 96 %
23.05.2022 05:50 16,8 C 16,7 C 16,8 C 16,8 C 16,7 C 15,0 C 73 % 70 % 0 lf 45 cb 1005,8 hPa 0,0 mm 2,3 km/h (1 Bft) S-SO 166 0 min 0,000 mm 0,0 UV-I 0 W/m 11,9 C 16,8 C 8,3 km/h (2 Bft) 97 %
23.05.2022 05:40 16,8 C 16,7 C 16,8 C 17,1 C 16,7 C 15,6 C 73 % 70 % 0 lf 45 cb 1006,1 hPa 0,0 mm 1,1 km/h (1 Bft) S-SO 153 0 min 0,000 mm 0,0 UV-I 0 W/m 11,9 C 16,8 C 4,1 km/h (1 Bft) 98 %
23.05.2022 05:30 16,9 C 16,7 C 16,9 C 17,1 C 16,7 C 15,6 C 74 % 70 % 0 lf 45 cb 1006,0 hPa 0,0 mm 2,7 km/h (1 Bft) S-SO 153 0 min 0,000 mm 0,0 UV-I 0 W/m 12,2 C 16,9 C 4,1 km/h (1 Bft) 97 %
23.05.2022 05:20 17,0 C 16,7 C 17,0 C 17,1 C 16,7 C 15,6 C 74 % 70 % 0 lf 45 cb 1006,2 hPa 0,0 mm 1,6 km/h (1 Bft) O-SO 115 0 min 0,000 mm 0,0 UV-I 0 W/m 12,3 C 17,0 C 4,1 km/h (1 Bft) 98 %
23.05.2022 05:10 17,1 C 16,7 C 17,1 C 17,2 C 16,7 C 15,6 C 74 % 70 % 0 lf 45 cb 1006,6 hPa 0,0 mm 1,7 km/h (1 Bft) O-SO 115 0 min 0,000 mm 0,0 UV-I 0 W/m 12,4 C 17,1 C 4,1 km/h (1 Bft) 98 %
23.05.2022 05:00 17,2 C 16,7 C 17,2 C 17,2 C 16,7 C 15,6 C 73 % 70 % 0 lf 45 cb 1006,8 hPa 0,0 mm 1,7 km/h (1 Bft) O-SO 115 0 min 0,025 mm 0,0 UV-I 0 W/m 12,3 C 17,2 C 6,2 km/h (2 Bft) 99 %
23.05.2022 04:50 17,2 C 16,7 C 17,2 C 17,2 C 16,7 C 15,6 C 73 % 70 % 0 lf 45 cb 1006,9 hPa 0,0 mm 2,8 km/h (1 Bft) O-SO 105 0 min 0,000 mm 0,0 UV-I 0 W/m 12,3 C 17,2 C 6,2 km/h (2 Bft) 100 %
23.05.2022 04:40 17,2 C 16,7 C 17,2 C 17,3 C 16,7 C 16,1 C 73 % 70 % 0 lf 45 cb 1007,0 hPa 0,0 mm 2,9 km/h (1 Bft) SO 143 0 min 0,000 mm 0,0 UV-I 0 W/m 12,3 C 17,2 C 6,2 km/h (2 Bft) 97 %
23.05.2022 04:30 17,3 C 17,2 C 17,3 C 17,3 C 16,7 C 16,1 C 73 % 70 % 0 lf 45 cb 1007,1 hPa 0,0 mm 3,5 km/h (1 Bft) O-SO 119 0 min 0,000 mm 0,0 UV-I 0 W/m 12,4 C 17,3 C 8,3 km/h (2 Bft) 97 %
23.05.2022 04:20 17,3 C 17,2 C 17,3 C 17,3 C 16,7 C 16,1 C 73 % 69 % 0 lf 45 cb 1007,2 hPa 0,0 mm 3,6 km/h (1 Bft) O 82 0 min 0,001 mm 0,0 UV-I 0 W/m 12,4 C 17,3 C 8,3 km/h (2 Bft) 97 %
23.05.2022 04:10 17,3 C 17,2 C 17,2 C 17,3 C 16,7 C 16,1 C 73 % 69 % 0 lf 45 cb 1007,2 hPa 0,0 mm 4,7 km/h (1 Bft) O-SO 115 0 min 0,025 mm 0,0 UV-I 0 W/m 12,4 C 17,3 C 10,3 km/h (2 Bft) 99 %
23.05.2022 04:00 17,2 C 17,2 C 17,2 C 17,2 C 16,7 C 16,1 C 73 % 69 % 0 lf 45 cb 1007,4 hPa 0,0 mm 5,1 km/h (1 Bft) O-SO 107 0 min 0,000 mm 0,0 UV-I 0 W/m 12,3 C 17,2 C 12,4 km/h (3 Bft) 99 %
23.05.2022 03:50 17,2 C 16,7 C 17,1 C 17,2 C 16,7 C 16,1 C 74 % 70 % 0 lf 45 cb 1007,6 hPa 0,0 mm 3,9 km/h (1 Bft) O-SO 109 0 min 0,000 mm 0,0 UV-I 0 W/m 12,5 C 17,2 C 8,3 km/h (2 Bft) 100 %
23.05.2022 03:40 17,1 C 16,7 C 17,1 C 17,2 C 16,7 C 16,1 C 74 % 70 % 0 lf 45 cb 1007,7 hPa 0,0 mm 2,7 km/h (1 Bft) O-SO 116 0 min 0,000 mm 0,0 UV-I 0 W/m 12,4 C 17,1 C 6,2 km/h (2 Bft) 100 %
23.05.2022 03:30 17,1 C 16,7 C 17,1 C 17,1 C 16,7 C 16,1 C 74 % 70 % 0 lf 45 cb 1007,6 hPa 0,0 mm 5,0 km/h (1 Bft) SO 127 0 min 0,000 mm 0,0 UV-I 0 W/m 12,4 C 17,1 C 12,4 km/h (3 Bft) 100 %
23.05.2022 03:20 17,1 C 16,7 C 17,1 C 17,1 C 16,7 C 16,1 C 74 % 70 % 0 lf 45 cb 1007,5 hPa 0,0 mm 5,6 km/h (1 Bft) O-SO 102 0 min 0,000 mm 0,0 UV-I 0 W/m 12,4 C 17,1 C 12,4 km/h (3 Bft) 100 %
23.05.2022 03:10 17,1 C 16,7 C 17,1 C 17,1 C 16,7 C 16,1 C 74 % 70 % 0 lf 45 cb 1007,4 hPa 0,0 mm 4,8 km/h (1 Bft) SO 131 0 min 0,000 mm 0,0 UV-I 0 W/m 12,4 C 17,1 C 10,3 km/h (2 Bft) 100 %
23.05.2022 03:00 17,1 C 16,7 C 17,1 C 17,1 C 16,7 C 16,1 C 74 % 69 % 0 lf 46 cb 1007,6 hPa 0,0 mm 4,4 km/h (1 Bft) SO 135 0 min 0,025 mm 0,0 UV-I 0 W/m 12,4 C 17,1 C 10,3 km/h (2 Bft) 99 %
23.05.2022 02:50 17,1 C 16,7 C 17,1 C 17,1 C 16,7 C 16,1 C 74 % 69 % 0 lf 46 cb 1007,8 hPa 0,0 mm 3,0 km/h (1 Bft) O-SO 105 0 min 0,000 mm 0,0 UV-I 0 W/m 12,4 C 17,1 C 8,3 km/h (2 Bft) 98 %
23.05.2022 02:40 17,1 C 16,7 C 17,1 C 17,1 C 16,7 C 16,1 C 74 % 69 % 0 lf 45 cb 1008,1 hPa 0,0 mm 3,6 km/h (1 Bft) O-SO 114 0 min 0,000 mm 0,0 UV-I 0 W/m 12,4 C 17,1 C 8,3 km/h (2 Bft) 97 %
23.05.2022 02:30 17,1 C 16,7 C 17,1 C 17,1 C 16,7 C 16,1 C 74 % 70 % 0 lf 45 cb 1008,2 hPa 0,0 mm 2,9 km/h (1 Bft) O-NO 71 0 min 0,000 mm 0,0 UV-I 0 W/m 12,4 C 17,1 C 6,2 km/h (2 Bft) 99 %
23.05.2022 02:20 17,1 C 16,7 C 17,1 C 17,2 C 16,7 C 16,1 C 74 % 70 % 0 lf 45 cb 1008,3 hPa 0,0 mm 3,0 km/h (1 Bft) O-SO 108 0 min 0,000 mm 0,0 UV-I 0 W/m 12,4 C 17,1 C 6,2 km/h (2 Bft) 100 %
23.05.2022 02:10 17,2 C 16,7 C 17,1 C 17,2 C 16,7 C 16,1 C 73 % 70 % 0 lf 45 cb 1008,5 hPa 0,0 mm 2,5 km/h (1 Bft) O 87 0 min 0,000 mm 0,0 UV-I 0 W/m 12,3 C 17,2 C 6,2 km/h (2 Bft) 99 %
23.05.2022 02:00 17,2 C 16,7 C 17,2 C 17,3 C 16,7 C 16,1 C 73 % 70 % 1 lf 45 cb 1008,6 hPa 0,0 mm 2,4 km/h (1 Bft) O-SO 109 0 min 0,026 mm 0,0 UV-I 0 W/m 12,3 C 17,2 C 6,2 km/h (2 Bft) 99 %
23.05.2022 01:50 17,3 C 16,7 C 17,2 C 17,3 C 16,7 C 16,1 C 73 % 70 % 0 lf 45 cb 1008,8 hPa 0,0 mm 2,5 km/h (1 Bft) O 86 0 min 0,000 mm 0,0 UV-I 0 W/m 12,4 C 17,3 C 6,2 km/h (2 Bft) 100 %
23.05.2022 01:40 17,3 C 17,2 C 17,3 C 17,4 C 16,7 C 16,7 C 73 % 69 % 0 lf 45 cb 1008,9 hPa 0,0 mm 2,1 km/h (1 Bft) SO 126 0 min 0,000 mm 0,0 UV-I 0 W/m 12,4 C 17,3 C 4,1 km/h (1 Bft) 100 %
23.05.2022 01:30 17,3 C 17,2 C 17,3 C 17,4 C 16,7 C 16,7 C 72 % 68 % 0 lf 45 cb 1009,2 hPa 0,0 mm 1,3 km/h (1 Bft) SO 132 0 min 0,000 mm 0,0 UV-I 0 W/m 12,2 C 17,3 C 6,2 km/h (2 Bft) 100 %
23.05.2022 01:20 17,4 C 17,2 C 17,4 C 17,4 C 16,7 C 16,7 C 72 % 68 % 0 lf 45 cb 1009,3 hPa 0,0 mm 3,2 km/h (1 Bft) SO 132 0 min 0,000 mm 0,0 UV-I 0 W/m 12,3 C 17,4 C 8,3 km/h (2 Bft) 100 %
23.05.2022 01:10 17,4 C 17,2 C 17,4 C 17,4 C 16,7 C 16,7 C 72 % 68 % 0 lf 45 cb 1009,2 hPa 0,0 mm 3,5 km/h (1 Bft) S-SO 154 0 min 0,000 mm 0,0 UV-I 0 W/m 12,3 C 17,4 C 8,3 km/h (2 Bft) 97 %
23.05.2022 01:00 17,4 C 17,2 C 17,4 C 17,4 C 16,7 C 16,1 C 72 % 68 % 0 lf 45 cb 1009,3 hPa 0,0 mm 1,5 km/h (1 Bft) S-SO 151 0 min 0,000 mm 0,0 UV-I 0 W/m 12,3 C 17,4 C 6,2 km/h (2 Bft) 98 %
23.05.2022 00:50 17,4 C 17,2 C 17,4 C 17,4 C 16,7 C 16,7 C 72 % 68 % 0 lf 45 cb 1009,3 hPa 0,0 mm 2,2 km/h (1 Bft) O 82 0 min 0,000 mm 0,0 UV-I 0 W/m 12,3 C 17,4 C 4,1 km/h (1 Bft) 98 %
23.05.2022 00:45 17,4 C 17,2 C 17,4 C 17,6 C 16,7 C 16,7 C 72 % 68 % 0 lf 45 cb 1009,4 hPa 0,0 mm 2,7 km/h (1 Bft) O-SO 111 0 min 0,000 mm 0,0 UV-I 0 W/m 12,3 C 17,4 C 10,3 km/h (2 Bft) 99 %
23.05.2022 00:30 17,6 C 17,2 C 17,6 C 17,7 C 16,7 C 16,7 C 72 % 68 % 0 lf 45 cb 1009,3 hPa 0,0 mm 3,5 km/h (1 Bft) S 173 0 min 0,000 mm 0,0 UV-I 0 W/m 12,5 C 17,6 C 10,3 km/h (2 Bft) 100 %
23.05.2022 00:20 17,7 C 17,2 C 17,7 C 17,8 C 16,7 C 16,7 C 71 % 68 % 0 lf 45 cb 1009,5 hPa 0,0 mm 3,1 km/h (1 Bft) O-SO 111 0 min 0,000 mm 0,0 UV-I 0 W/m 12,4 C 17,7 C 8,3 km/h (2 Bft) 100 %
23.05.2022 00:10 17,8 C 17,2 C 17,8 C 17,9 C 16,7 C 16,7 C 71 % 67 % 0 lf 45 cb 1010,0 hPa 0,0 mm 2,0 km/h (1 Bft) O-NO 69 0 min 0,000 mm 0,0 UV-I 0 W/m 12,5 C 17,8 C 4,1 km/h (1 Bft) 100 %
23.05.2022 00:00 17,8 C 17,8 C 17,8 C 17,9 C 16,7 C 16,7 C 70 % 67 % 0 lf 45 cb 1010,1 hPa 0,0 mm 2,1 km/h (1 Bft) SO 135 0 min 0,025 mm 0,0 UV-I 0 W/m 12,3 C 17,8 C 8,3 km/h (2 Bft) 100 %
22.05.2022 23:50 17,9 C 17,8 C 17,9 C 18,0 C 16,7 C 16,7 C 70 % 66 % 0 lf 45 cb 1010,2 hPa 0,0 mm 2,7 km/h (1 Bft) O 85 0 min 0,000 mm 0,0 UV-I 0 W/m 12,3 C 17,9 C 6,2 km/h (2 Bft) 99 %
22.05.2022 23:40 18,0 C 17,8 C 18,0 C 18,1 C 16,7 C 16,7 C 70 % 67 % 0 lf 46 cb 1010,1 hPa 0,0 mm 3,9 km/h (1 Bft) O 92 0 min 0,000 mm 0,0 UV-I 0 W/m 12,4 C 18,0 C 8,3 km/h (2 Bft) 100 %
22.05.2022 23:30 18,1 C 17,8 C 18,1 C 18,2 C 16,7 C 16,7 C 70 % 66 % 0 lf 46 cb 1010,2 hPa 0,0 mm 3,0 km/h (1 Bft) O 99 0 min 0,000 mm 0,0 UV-I 0 W/m 12,5 C 18,1 C 8,3 km/h (2 Bft) 99 %
22.05.2022 23:20 18,2 C 17,8 C 18,2 C 18,3 C 16,7 C 16,7 C 69 % 66 % 0 lf 46 cb 1010,2 hPa 0,0 mm 2,8 km/h (1 Bft) SO 132 0 min 0,000 mm 0,0 UV-I 0 W/m 12,4 C 18,2 C 8,3 km/h (2 Bft) 97 %
22.05.2022 23:10 18,3 C 17,8 C 18,3 C 18,5 C 16,7 C 16,7 C 69 % 66 % 0 lf 46 cb 1010,3 hPa 0,0 mm 2,0 km/h (1 Bft) O-SO 103 0 min 0,025 mm 0,0 UV-I 0 W/m 12,5 C 18,3 C 6,2 km/h (2 Bft) 97 %
22.05.2022 23:00 18,5 C 18,3 C 18,5 C 18,8 C 16,7 C 16,7 C 68 % 65 % 0 lf 46 cb 1010,4 hPa 0,0 mm 1,1 km/h (1 Bft) SO 137 0 min 0,001 mm 0,0 UV-I 0 W/m 12,5 C 18,5 C 4,1 km/h (1 Bft) 99 %
22.05.2022 22:50 18,7 C 18,3 C 18,7 C 18,8 C 16,7 C 16,7 C 68 % 64 % 0 lf 46 cb 1010,5 hPa 0,0 mm 2,1 km/h (1 Bft) SO 135 0 min 0,000 mm 0,0 UV-I 0 W/m 12,7 C 18,7 C 4,1 km/h (1 Bft) 100 %
22.05.2022 22:40 18,8 C 18,3 C 18,8 C 19,0 C 16,7 C 17,2 C 67 % 64 % 0 lf 46 cb 1010,5 hPa 0,0 mm 2,1 km/h (1 Bft) SO 135 0 min 0,000 mm 0,0 UV-I 0 W/m 12,5 C 18,8 C 6,2 km/h (2 Bft) 100 %
22.05.2022 22:30 18,9 C 18,3 C 18,9 C 19,1 C 16,7 C 17,2 C 66 % 63 % 0 lf 46 cb 1010,6 hPa 0,0 mm 2,1 km/h (1 Bft) SO 135 0 min 0,000 mm 0,0 UV-I 0 W/m 12,4 C 18,9 C 6,2 km/h (2 Bft) 100 %
22.05.2022 22:20 19,1 C 18,3 C 19,1 C 19,3 C 16,7 C 16,7 C 66 % 63 % 0 lf 46 cb 1010,7 hPa 0,0 mm 2,1 km/h (1 Bft) SO 135 0 min 0,000 mm 0,0 UV-I 0 W/m 12,6 C 19,1 C 4,1 km/h (1 Bft) 100 %
22.05.2022 22:00 19,7 C 18,9 C 19,7 C 20,1 C 16,7 C 16,7 C 64 % 61 % 0 lf 46 cb 1010,7 hPa 0,0 mm 0,0 km/h (0 Bft) N 0 0 min 0,025 mm 0,0 UV-I 0 W/m 12,7 C 19,7 C 0,0 km/h (0 Bft) 100 %
22.05.2022 21:50 20,1 C 19,4 C 20,1 C 20,3 C 16,7 C 16,7 C 62 % 60 % 0 lf 46 cb 1010,8 hPa 0,0 mm 0,0 km/h (0 Bft) S-SW 194 0 min 0,000 mm 0,0 UV-I 0 W/m 12,6 C 20,1 C 0,0 km/h (0 Bft) 99 %
22.05.2022 21:40 20,3 C 19,4 C 20,3 C 20,6 C 16,7 C 16,7 C 59 % 56 % 0 lf 46 cb 1010,8 hPa 0,0 mm 0,0 km/h (0 Bft) S-SW 194 0 min 0,000 mm 0,0 UV-I 0 W/m 12,0 C 20,3 C 0,0 km/h (0 Bft) 98 %
22.05.2022 21:30 20,6 C 20,0 C 20,6 C 20,8 C 16,7 C 16,7 C 57 % 55 % 0 lf 46 cb 1010,8 hPa 0,0 mm 0,0 km/h (0 Bft) S-SW 194 0 min 0,000 mm 0,0 UV-I 0 W/m 11,8 C 20,6 C 2,1 km/h (1 Bft) 98 %
22.05.2022 21:20 20,8 C 20,0 C 20,8 C 21,1 C 16,7 C 16,7 C 56 % 53 % 0 lf 46 cb 1010,9 hPa 0,0 mm 0,0 km/h (0 Bft) S-SW 194 0 min 0,000 mm 0,0 UV-I 1 W/m 11,7 C 20,8 C 0,0 km/h (0 Bft) 97 %
22.05.2022 21:10 21,1 C 20,6 C 21,1 C 21,3 C 16,7 C 17,2 C 55 % 52 % 0 lf 46 cb 1010,9 hPa 0,0 mm 0,0 km/h (0 Bft) S-SW 194 0 min 0,000 mm 0,0 UV-I 6 W/m 11,7 C 21,1 C 0,0 km/h (0 Bft) 99 %
22.05.2022 21:00 21,2 C 20,6 C 21,2 C 21,3 C 16,7 C 17,8 C 54 % 51 % 0 lf 46 cb 1010,9 hPa 0,0 mm 0,0 km/h (0 Bft) S-SW 194 0 min 0,051 mm 0,0 UV-I 9 W/m 11,5 C 21,2 C 0,0 km/h (0 Bft) 100 %
22.05.2022 20:50 21,3 C 21,1 C 21,3 C 21,4 C 16,7 C 18,3 C 53 % 51 % 0 lf 46 cb 1011,0 hPa 0,0 mm 0,0 km/h (0 Bft) S-SW 194 0 min 0,000 mm 0,0 UV-I 11 W/m 11,3 C 21,3 C 0,0 km/h (0 Bft) 100 %
22.05.2022 20:40 21,4 C 21,1 C 21,4 C 21,6 C 16,7 C 18,9 C 53 % 49 % 0 lf 46 cb 1011,1 hPa 0,0 mm 0,0 km/h (0 Bft) S-SW 194 0 min 0,000 mm 0,0 UV-I 13 W/m 11,4 C 21,4 C 2,1 km/h (1 Bft) 100 %
22.05.2022 20:30 21,6 C 21,1 C 21,6 C 21,7 C 16,7 C 19,4 C 52 % 49 % 0 lf 46 cb 1011,2 hPa 0,0 mm 0,7 km/h (0 Bft) O-SO 111 0 min 0,000 mm 0,0 UV-I 19 W/m 11,3 C 21,6 C 4,1 km/h (1 Bft) 100 %
22.05.2022 20:20 21,7 C 21,1 C 21,7 C 21,8 C 16,7 C 19,4 C 51 % 47 % 0 lf 46 cb 1011,1 hPa 0,0 mm 0,6 km/h (0 Bft) O-SO 111 0 min 0,000 mm 0,0 UV-I 20 W/m 11,1 C 21,7 C 4,1 km/h (1 Bft) 100 %
22.05.2022 20:10 21,8 C 21,7 C 21,8 C 21,9 C 16,7 C 19,4 C 50 % 46 % 0 lf 46 cb 1011,2 hPa 0,0 mm 2,4 km/h (1 Bft) O-SO 111 0 min 0,050 mm 0,0 UV-I 21 W/m 10,9 C 21,8 C 4,1 km/h (1 Bft) 98 %
22.05.2022 20:00 21,9 C 21,7 C 21,9 C 22,0 C 16,7 C 20,0 C 49 % 45 % 0 lf 46 cb 1011,3 hPa 0,0 mm 2,7 km/h (1 Bft) SO 130 0 min 0,000 mm 0,0 UV-I 24 W/m 10,7 C 21,9 C 6,2 km/h (2 Bft) 97 %
22.05.2022 19:50 22,0 C 21,7 C 22,0 C 22,1 C 16,7 C 20,6 C 49 % 45 % 0 lf 46 cb 1011,5 hPa 0,0 mm 2,3 km/h (1 Bft) SO 144 0 min 0,000 mm 0,0 UV-I 39 W/m 10,8 C 22,0 C 6,2 km/h (2 Bft) 95 %
22.05.2022 19:40 22,1 C 21,7 C 22,1 C 22,1 C 16,7 C 20,6 C 49 % 44 % 0 lf 46 cb 1011,5 hPa 0,0 mm 2,8 km/h (1 Bft) O 90 0 min 0,000 mm 0,0 UV-I 42 W/m 10,9 C 22,1 C 6,2 km/h (2 Bft) 95 %
22.05.2022 19:30 22,1 C 21,7 C 22,1 C 22,1 C 16,7 C 20,6 C 49 % 45 % 0 lf 46 cb 1011,6 hPa 0,0 mm 2,3 km/h (1 Bft) SO 140 0 min 0,000 mm 0,0 UV-I 45 W/m 10,9 C 22,1 C 6,2 km/h (2 Bft) 95 %
22.05.2022 19:20 22,1 C 21,7 C 22,1 C 22,1 C 16,7 C 21,1 C 47 % 42 % 0 lf 46 cb 1011,5 hPa 0,0 mm 3,6 km/h (1 Bft) SO 137 0 min 0,000 mm 0,0 UV-I 60 W/m 10,3 C 22,1 C 10,3 km/h (2 Bft) 97 %
22.05.2022 19:10 22,1 C 21,7 C 22,1 C 22,2 C 16,7 C 21,1 C 48 % 43 % 0 lf 46 cb 1011,6 hPa 0,0 mm 4,3 km/h (1 Bft) O-SO 123 0 min 0,000 mm 0,0 UV-I 51 W/m 10,6 C 22,1 C 10,3 km/h (2 Bft) 97 %
22.05.2022 19:00 22,1 C 21,7 C 22,1 C 22,2 C 16,7 C 21,1 C 48 % 43 % 0 lf 46 cb 1011,7 hPa 0,0 mm 4,8 km/h (1 Bft) O-SO 108 0 min 0,102 mm 0,0 UV-I 68 W/m 10,6 C 22,1 C 12,4 km/h (3 Bft) 97 %
22.05.2022 18:50 22,2 C 22,2 C 22,2 C 22,3 C 16,7 C 21,1 C 47 % 42 % 0 lf 46 cb 1011,7 hPa 0,0 mm 5,1 km/h (1 Bft) O-NO 77 0 min 0,000 mm 0,0 UV-I 62 W/m 10,3 C 22,2 C 12,4 km/h (3 Bft) 97 %
22.05.2022 18:40 22,3 C 22,2 C 22,3 C 22,4 C 16,7 C 21,1 C 49 % 44 % 0 lf 46 cb 1011,9 hPa 0,0 mm 4,9 km/h (1 Bft) SO 140 0 min 0,000 mm 0,1 UV-I 95 W/m 11,1 C 22,3 C 12,4 km/h (3 Bft) 98 %
22.05.2022 18:30 22,3 C 22,2 C 22,3 C 22,4 C 16,7 C 21,7 C 50 % 47 % 0 lf 46 cb 1011,9 hPa 0,0 mm 3,1 km/h (1 Bft) S-SO 149 0 min 0,000 mm 0,5 UV-I 134 W/m 11,4 C 22,3 C 8,3 km/h (2 Bft) 98 %
22.05.2022 18:20 22,3 C 22,2 C 22,3 C 22,3 C 16,7 C 21,7 C 50 % 46 % 0 lf 46 cb 1012,0 hPa 0,0 mm 3,9 km/h (1 Bft) O-SO 103 0 min 0,000 mm 0,5 UV-I 80 W/m 11,4 C 22,3 C 12,4 km/h (3 Bft) 97 %
22.05.2022 18:10 22,3 C 22,2 C 22,2 C 22,3 C 16,7 C 21,7 C 48 % 43 % 0 lf 46 cb 1012,3 hPa 0,0 mm 3,8 km/h (1 Bft) O-SO 106 0 min 0,076 mm 0,6 UV-I 80 W/m 10,8 C 22,3 C 12,4 km/h (3 Bft) 98 %
22.05.2022 18:00 22,3 C 22,2 C 22,3 C 22,3 C 16,7 C 21,1 C 49 % 44 % 0 lf 46 cb 1012,6 hPa 0,0 mm 3,9 km/h (1 Bft) SO 139 0 min 0,000 mm 0,2 UV-I 56 W/m 11,1 C 22,3 C 12,4 km/h (3 Bft) 95 %
22.05.2022 17:50 22,3 C 22,2 C 22,3 C 22,3 C 16,7 C 21,7 C 50 % 44 % 0 lf 46 cb 1012,7 hPa 0,0 mm 4,8 km/h (1 Bft) O-SO 115 0 min 0,000 mm 0,6 UV-I 70 W/m 11,4 C 22,3 C 14,5 km/h (3 Bft) 95 %
22.05.2022 17:40 22,3 C 22,2 C 22,2 C 22,3 C 16,7 C 21,7 C 51 % 47 % 0 lf 46 cb 1012,8 hPa 0,0 mm 2,5 km/h (1 Bft) O-SO 121 0 min 0,000 mm 0,6 UV-I 62 W/m 11,7 C 22,3 C 8,3 km/h (2 Bft) 95 %
22.05.2022 17:30 22,2 C 22,2 C 22,1 C 22,2 C 16,7 C 21,7 C 50 % 46 % 0 lf 46 cb 1013,0 hPa 0,0 mm 5,7 km/h (1 Bft) O-SO 113 0 min 0,000 mm 0,1 UV-I 55 W/m 11,3 C 22,2 C 18,6 km/h (3 Bft) 98 %
22.05.2022 17:20 22,2 C 21,7 C 22,2 C 22,3 C 16,7 C 21,7 C 50 % 46 % 0 lf 46 cb 1013,1 hPa 0,0 mm 4,5 km/h (1 Bft) O-SO 118 0 min 0,000 mm 0,7 UV-I 68 W/m 11,3 C 22,2 C 16,5 km/h (3 Bft) 97 %
22.05.2022 17:10 22,3 C 22,2 C 22,0 C 22,3 C 16,7 C 21,7 C 50 % 47 % 0 lf 46 cb 1013,3 hPa 0,0 mm 1,9 km/h (1 Bft) S-SO 150 0 min 0,076 mm 0,8 UV-I 61 W/m 11,4 C 22,3 C 10,3 km/h (2 Bft) 99 %
22.05.2022 17:00 22,0 C 22,2 C 21,9 C 22,0 C 16,7 C 22,2 C 52 % 47 % 0 lf 46 cb 1013,4 hPa 0,0 mm 3,2 km/h (1 Bft) W 278 0 min 0,000 mm 0,9 UV-I 68 W/m 11,7 C 22,0 C 10,3 km/h (2 Bft) 100 %
22.05.2022 16:50 21,9 C 22,2 C 21,8 C 21,9 C 16,7 C 22,2 C 51 % 47 % 0 lf 46 cb 1013,5 hPa 0,0 mm 2,1 km/h (1 Bft) O-SO 120 0 min 0,000 mm 0,9 UV-I 62 W/m 11,3 C 21,9 C 8,3 km/h (2 Bft) 100 %
22.05.2022 16:40 21,9 C 22,2 C 21,8 C 21,9 C 16,7 C 22,2 C 51 % 46 % 0 lf 46 cb 1013,5 hPa 0,0 mm 3,3 km/h (1 Bft) SO 136 0 min 0,000 mm 1,0 UV-I 144 W/m 11,3 C 21,9 C 12,4 km/h (3 Bft) 99 %
22.05.2022 16:30 21,8 C 22,2 C 21,8 C 21,8 C 16,7 C 22,8 C 50 % 45 % 0 lf 46 cb 1013,6 hPa 0,0 mm 5,3 km/h (1 Bft) S-SO 149 0 min 0,000 mm 1,0 UV-I 62 W/m 10,9 C 21,8 C 12,4 km/h (3 Bft) 100 %
22.05.2022 16:20 21,8 C 22,2 C 21,8 C 21,9 C 16,7 C 22,8 C 49 % 44 % 0 lf 46 cb 1013,7 hPa 0,0 mm 4,8 km/h (1 Bft) S-SO 147 0 min 0,000 mm 1,1 UV-I 68 W/m 10,6 C 21,8 C 14,5 km/h (3 Bft) 99 %
22.05.2022 16:10 21,9 C 22,2 C 21,8 C 21,9 C 16,7 C 22,8 C 52 % 46 % 0 lf 46 cb 1013,6 hPa 0,0 mm 2,7 km/h (1 Bft) O-SO 105 0 min 0,000 mm 1,1 UV-I 90 W/m 11,6 C 21,9 C 10,3 km/h (2 Bft) 97 %
22.05.2022 16:00 21,8 C 22,2 C 21,7 C 21,8 C 16,7 C 22,8 C 53 % 46 % 0 lf 46 cb 1013,9 hPa 0,0 mm 4,4 km/h (1 Bft) S 185 0 min 0,077 mm 1,1 UV-I 61 W/m 11,8 C 21,8 C 14,5 km/h (3 Bft) 98 %
22.05.2022 15:50 21,8 C 22,8 C 21,7 C 21,8 C 16,7 C 23,3 C 51 % 43 % 0 lf 46 cb 1014,0 hPa 0,0 mm 5,6 km/h (1 Bft) O-SO 119 0 min 0,000 mm 1,2 UV-I 62 W/m 11,2 C 21,8 C 18,6 km/h (3 Bft) 98 %
22.05.2022 15:40 21,7 C 22,2 C 21,6 C 21,7 C 16,7 C 23,3 C 52 % 45 % 0 lf 46 cb 1013,9 hPa 0,0 mm 2,6 km/h (1 Bft) O-SO 119 0 min 0,000 mm 1,3 UV-I 65 W/m 11,4 C 21,7 C 8,3 km/h (2 Bft) 100 %
22.05.2022 15:30 21,6 C 22,8 C 21,6 C 21,8 C 16,7 C 23,9 C 52 % 49 % 0 lf 46 cb 1014,0 hPa 0,0 mm 4,9 km/h (1 Bft) SO 134 0 min 0,000 mm 1,3 UV-I 68 W/m 11,3 C 21,6 C 18,6 km/h (3 Bft) 100 %
22.05.2022 15:20 21,8 C 22,8 C 21,7 C 21,8 C 16,7 C 23,9 C 52 % 45 % 0 lf 46 cb 1014,2 hPa 0,0 mm 3,7 km/h (1 Bft) S-SO 150 0 min 0,000 mm 1,4 UV-I 76 W/m 11,5 C 21,8 C 12,4 km/h (3 Bft) 100 %
22.05.2022 15:10 21,7 C 22,8 C 21,6 C 21,7 C 16,7 C 23,3 C 52 % 49 % 0 lf 46 cb 1014,4 hPa 0,0 mm 2,2 km/h (1 Bft) S 177 0 min 0,228 mm 1,4 UV-I 81 W/m 11,4 C 21,7 C 12,4 km/h (3 Bft) 100 %
22.05.2022 15:00 21,7 C 22,2 C 21,7 C 21,9 C 16,7 C 23,9 C 52 % 46 % 0 lf 46 cb 1014,5 hPa 0,0 mm 4,7 km/h (1 Bft) O-SO 113 0 min 0,000 mm 1,6 UV-I 93 W/m 11,4 C 21,7 C 14,5 km/h (3 Bft) 100 %
22.05.2022 14:50 21,8 C 22,8 C 21,6 C 21,8 C 16,7 C 25,0 C 53 % 48 % 0 lf 46 cb 1014,7 hPa 0,0 mm 4,7 km/h (1 Bft) S-SO 166 0 min 0,000 mm 1,7 UV-I 108 W/m 11,8 C 21,8 C 12,4 km/h (3 Bft) 100 %
22.05.2022 14:40 21,6 C 22,2 C 21,3 C 21,6 C 16,7 C 26,1 C 54 % 48 % 0 lf 46 cb 1014,8 hPa 0,0 mm 3,6 km/h (1 Bft) O-SO 121 0 min 0,000 mm 2,3 UV-I 144 W/m 11,9 C 21,6 C 10,3 km/h (2 Bft) 100 %
22.05.2022 14:30 21,5 C 22,2 C 21,5 C 21,7 C 16,7 C 27,8 C 54 % 48 % 0 lf 46 cb 1015,0 hPa 0,0 mm 5,5 km/h (1 Bft) S-SO 149 0 min 0,000 mm 2,8 UV-I 332 W/m 11,8 C 21,5 C 16,5 km/h (3 Bft) 98 %
22.05.2022 14:20 21,7 C 22,2 C 21,7 C 22,2 C 16,7 C 28,9 C 54 % 48 % 0 lf 46 cb 1015,1 hPa 0,0 mm 3,9 km/h (1 Bft) SO 126 0 min 0,000 mm 3,0 UV-I 430 W/m 12,0 C 21,7 C 16,5 km/h (3 Bft) 98 %
22.05.2022 14:10 22,2 C 22,2 C 21,9 C 22,2 C 16,7 C 30,6 C 50 % 47 % 0 lf 46 cb 1015,3 hPa 0,0 mm 4,2 km/h (1 Bft) SO 132 10 min 0,559 mm 3,5 UV-I 772 W/m 11,3 C 22,2 C 12,4 km/h (3 Bft) 97 %
22.05.2022 14:00 21,9 C 22,8 C 21,4 C 21,9 C 16,7 C 31,7 C 52 % 49 % 0 lf 46 cb 1015,3 hPa 0,0 mm 3,3 km/h (1 Bft) SO 132 10 min 0,000 mm 3,8 UV-I 806 W/m 11,6 C 21,9 C 12,4 km/h (3 Bft) 98 %
22.05.2022 13:50 21,6 C 22,2 C 21,3 C 21,8 C 16,7 C 35,0 C 51 % 46 % 0 lf 46 cb 1015,4 hPa 0,0 mm 3,9 km/h (1 Bft) O-SO 114 10 min 0,000 mm 3,8 UV-I 807 W/m 11,0 C 21,6 C 14,5 km/h (3 Bft) 100 %
22.05.2022 13:40 21,4 C 22,2 C 21,1 C 21,4 C 16,7 C 37,8 C 53 % 50 % 0 lf 46 cb 1015,5 hPa 0,0 mm 4,7 km/h (1 Bft) O 84 10 min 0,000 mm 3,7 UV-I 800 W/m 11,4 C 21,4 C 14,5 km/h (3 Bft) 100 %
22.05.2022 13:30 21,3 C 21,7 C 21,3 C 21,8 C 16,7 C 37,8 C 55 % 53 % 0 lf 46 cb 1015,6 hPa 0,0 mm 3,7 km/h (1 Bft) SO 128 10 min 0,000 mm 3,7 UV-I 795 W/m 11,9 C 21,3 C 12,4 km/h (3 Bft) 100 %
22.05.2022 13:20 21,8 C 21,7 C 21,7 C 21,9 C 16,7 C 36,7 C 53 % 52 % 0 lf 46 cb 1015,7 hPa 0,0 mm 3,1 km/h (1 Bft) O 80 10 min 0,000 mm 3,7 UV-I 825 W/m 11,8 C 21,8 C 14,5 km/h (3 Bft) 100 %
22.05.2022 13:10 21,8 C 22,2 C 21,6 C 21,9 C 16,7 C 38,9 C 56 % 52 % 0 lf 46 cb 1015,9 hPa 0,0 mm 3,8 km/h (1 Bft) SO 125 10 min 0,533 mm 3,8 UV-I 824 W/m 12,6 C 21,8 C 12,4 km/h (3 Bft) 100 %
22.05.2022 13:00 21,6 C 21,1 C 20,8 C 21,6 C 16,7 C 39,4 C 55 % 53 % 0 lf 46 cb 1016,0 hPa 0,0 mm 2,7 km/h (1 Bft) O 88 10 min 0,000 mm 3,8 UV-I 842 W/m 12,2 C 21,6 C 12,4 km/h (3 Bft) 100 %
22.05.2022 12:50 20,8 C 21,1 C 20,7 C 21,6 C 16,7 C 39,4 C 58 % 52 % 0 lf 46 cb 1016,4 hPa 0,0 mm 4,3 km/h (1 Bft) S-SO 163 10 min 0,000 mm 3,7 UV-I 806 W/m 12,2 C 20,8 C 10,3 km/h (2 Bft) 100 %
22.05.2022 12:40 21,6 C 20,6 C 21,4 C 21,7 C 16,7 C 37,2 C 55 % 55 % 0 lf 46 cb 1016,4 hPa 0,0 mm 2,0 km/h (1 Bft) O 101 10 min 0,000 mm 3,5 UV-I 766 W/m 12,2 C 21,6 C 6,2 km/h (2 Bft) 100 %
22.05.2022 12:30 21,6 C 21,1 C 21,6 C 22,4 C 16,7 C 35,0 C 55 % 54 % 0 lf 47 cb 1016,5 hPa 0,0 mm 2,9 km/h (1 Bft) O 88 10 min 0,000 mm 3,5 UV-I 796 W/m 12,2 C 21,6 C 6,2 km/h (2 Bft) 97 %
22.05.2022 12:20 22,4 C 20,6 C 21,7 C 22,7 C 16,7 C 37,2 C 53 % 58 % 0 lf 47 cb 1016,7 hPa 0,0 mm 1,3 km/h (1 Bft) S-SO 155 10 min 0,000 mm 3,4 UV-I 740 W/m 12,3 C 22,4 C 8,3 km/h (2 Bft) 97 %
22.05.2022 12:10 21,7 C 20,6 C 20,1 C 21,8 C 16,7 C 35,0 C 55 % 56 % 0 lf 46 cb 1016,7 hPa 0,0 mm 1,4 km/h (1 Bft) SO 142 10 min 0,000 mm 3,1 UV-I 682 W/m 12,3 C 21,7 C 8,3 km/h (2 Bft) 97 %
22.05.2022 12:00 20,1 C 20,0 C 19,9 C 20,4 C 16,7 C 37,8 C 61 % 57 % 0 lf 47 cb 1016,7 hPa 0,0 mm 3,7 km/h (1 Bft) SO 126 10 min 0,458 mm 3,1 UV-I 699 W/m 12,3 C 20,1 C 12,4 km/h (3 Bft) 100 %
22.05.2022 11:50 20,4 C 20,6 C 19,8 C 20,4 C 16,7 C 36,7 C 59 % 54 % 0 lf 47 cb 1016,8 hPa 0,0 mm 3,6 km/h (1 Bft) O-SO 119 10 min 0,000 mm 3,0 UV-I 675 W/m 12,1 C 20,4 C 12,4 km/h (3 Bft) 100 %
22.05.2022 11:40 19,8 C 19,4 C 19,5 C 19,8 C 16,7 C 34,4 C 59 % 57 % 0 lf 46 cb 1016,8 hPa 0,0 mm 3,8 km/h (1 Bft) S-SO 150 10 min 0,000 mm 2,8 UV-I 637 W/m 11,6 C 19,8 C 12,4 km/h (3 Bft) 100 %
22.05.2022 11:30 19,8 C 19,4 C 19,8 C 20,4 C 16,7 C 35,0 C 59 % 56 % 0 lf 46 cb 1016,8 hPa 0,0 mm 4,9 km/h (1 Bft) SO 143 10 min 0,000 mm 2,8 UV-I 675 W/m 11,6 C 19,8 C 12,4 km/h (3 Bft) 100 %
22.05.2022 11:20 20,4 C 20,0 C 19,9 C 20,5 C 16,7 C 34,4 C 59 % 57 % 0 lf 46 cb 1016,9 hPa 0,0 mm 3,1 km/h (1 Bft) S-SO 161 10 min 0,000 mm 2,5 UV-I 602 W/m 12,1 C 20,4 C 10,3 km/h (2 Bft) 100 %
22.05.2022 11:10 19,9 C 19,4 C 19,4 C 19,9 C 16,7 C 32,8 C 59 % 58 % 0 lf 46 cb 1017,0 hPa 0,0 mm 2,6 km/h (1 Bft) O-NO 76 10 min 0,381 mm 2,4 UV-I 600 W/m 11,6 C 19,9 C 8,3 km/h (2 Bft) 100 %
22.05.2022 11:00 19,7 C 18,9 C 19,6 C 19,8 C 16,7 C 35,0 C 59 % 58 % 0 lf 46 cb 1017,1 hPa 0,0 mm 4,9 km/h (1 Bft) O-SO 102 10 min 0,000 mm 2,6 UV-I 669 W/m 11,5 C 19,7 C 12,4 km/h (3 Bft) 100 %
22.05.2022 10:50 19,6 C 19,4 C 18,8 C 19,6 C 16,7 C 35,6 C 61 % 60 % 0 lf 46 cb 1017,2 hPa 0,0 mm 3,4 km/h (1 Bft) SO 136 10 min 0,000 mm 2,4 UV-I 639 W/m 11,9 C 19,6 C 12,4 km/h (3 Bft) 100 %
22.05.2022 10:40 18,8 C 18,3 C 18,8 C 19,7 C 16,7 C 32,8 C 62 % 60 % 0 lf 46 cb 1017,4 hPa 0,0 mm 4,3 km/h (1 Bft) O-SO 116 10 min 0,000 mm 2,0 UV-I 550 W/m 11,4 C 18,8 C 10,3 km/h (2 Bft) 97 %
22.05.2022 10:30 19,7 C 18,3 C 19,7 C 20,3 C 16,7 C 28,9 C 57 % 57 % 0 lf 46 cb 1017,5 hPa 0,0 mm 2,7 km/h (1 Bft) SO 126 10 min 0,000 mm 1,6 UV-I 404 W/m 10,9 C 19,7 C 6,2 km/h (2 Bft) 97 %
22.05.2022 10:20 20,1 C 18,3 C 19,7 C 20,1 C 16,7 C 28,9 C 58 % 58 % 0 lf 47 cb 1017,6 hPa 0,0 mm 2,3 km/h (1 Bft) O 100 10 min 0,000 mm 2,0 UV-I 567 W/m 11,6 C 20,1 C 10,3 km/h (2 Bft) 97 %
22.05.2022 10:10 19,7 C 18,3 C 18,8 C 19,7 C 16,7 C 32,8 C 59 % 58 % 0 lf 47 cb 1017,7 hPa 0,0 mm 2,8 km/h (1 Bft) SO 126 10 min 0,000 mm 1,9 UV-I 599 W/m 11,5 C 19,7 C 8,3 km/h (2 Bft) 100 %
22.05.2022 10:00 18,8 C 17,8 C 18,7 C 18,8 C 16,7 C 31,7 C 59 % 60 % 0 lf 47 cb 1018,0 hPa 0,0 mm 3,4 km/h (1 Bft) O-SO 116 10 min 0,304 mm 1,7 UV-I 554 W/m 10,6 C 18,8 C 8,3 km/h (2 Bft) 100 %
22.05.2022 09:50 18,8 C 17,8 C 18,6 C 18,8 C 16,7 C 31,1 C 62 % 61 % 0 lf 47 cb 1017,8 hPa 0,0 mm 3,1 km/h (1 Bft) S-SO 152 10 min 0,000 mm 1,6 UV-I 524 W/m 11,4 C 18,8 C 10,3 km/h (2 Bft) 99 %
22.05.2022 09:40 18,8 C 17,2 C 18,1 C 18,8 C 16,7 C 31,1 C 64 % 65 % 0 lf 46 cb 1017,8 hPa 0,0 mm 2,3 km/h (1 Bft) O-SO 114 10 min 0,000 mm 1,4 UV-I 512 W/m 11,8 C 18,8 C 8,3 km/h (2 Bft) 98 %
22.05.2022 09:30 18,1 C 17,2 C 17,6 C 18,1 C 16,7 C 30,0 C 68 % 67 % 0 lf 46 cb 1017,9 hPa 0,0 mm 2,4 km/h (1 Bft) O-SO 110 10 min 0,000 mm 1,3 UV-I 470 W/m 12,1 C 18,1 C 6,2 km/h (2 Bft) 97 %
22.05.2022 09:20 17,6 C 16,7 C 17,2 C 17,6 C 16,7 C 28,9 C 70 % 68 % 0 lf 46 cb 1018,0 hPa 0,0 mm 3,3 km/h (1 Bft) SO 131 10 min 0,000 mm 1,2 UV-I 460 W/m 12,1 C 17,6 C 8,3 km/h (2 Bft) 98 %
22.05.2022 09:10 17,2 C 16,1 C 16,7 C 17,2 C 16,7 C 26,1 C 72 % 69 % 0 lf 46 cb 1018,0 hPa 0,0 mm 2,4 km/h (1 Bft) O 94 10 min 0,000 mm 1,0 UV-I 421 W/m 12,1 C 17,2 C 6,2 km/h (2 Bft) 97 %
22.05.2022 09:00 16,7 C 15,6 C 16,2 C 16,7 C 16,7 C 26,7 C 74 % 73 % 0 lf 46 cb 1017,9 hPa 0,0 mm 3,0 km/h (1 Bft) O-SO 107 10 min 0,178 mm 0,9 UV-I 406 W/m 12,0 C 16,7 C 6,2 km/h (2 Bft) 98 %
_ Min-Zeit 06:50 09:00 09:00 06:30 09:00 05:50 18:50 18:50 09:00 23:50 08:20 - 20:40 - - - - - - 19:20 06:20 20:50 08:00
Minimum _ 16,2 C 15,6 C 16,2 C 16,3 C 16,7 C 15,0 C 47 % 42 % 0 lf 45 cb 1004,1 hPa - 0,0 km/h (0 Bft) - - - - - - 10,3 C 16,3 C 0,0 km/h (0 Bft) 94 %
_ Max-Zeit 12:20 14:00 17:50 12:20 09:00 12:50 09:00 09:00 02:00 09:50 09:10 09:00 17:30 - - 09:00 14:10 13:00 13:00 22:00 12:20 15:30 10:00
Maximum _ 22,7 C 22,8 C 22,3 C 22,7 C 16,7 C 39,4 C 74 % 73 % 1 lf 47 cb 1018,0 hPa 0,0 mm 5,7 km/h
O-SO (1 Bft)
- - 10 min 0,559 mm 3,8 UV-I 842 W/m 12,7 C 22,4 C 18,6 km/h
S-SO (3 Bft)
100 %
Durchschnitt _ 19,2 C 18,9 C 19,1 C 19,3 C 16,7 C 22,3 C 63 % 60 % 0 lf 46 cb 1011,8 hPa #0,0 mm 3,0 km/h (1 Bft) O-SO - #0 min. #0,229 mm 0,1 UV-I 51 W/m 11,8 C 19,2 C 8,5 km/h (2 Bft) 98 %